Time;durP1;ratioP1;P1;durP2;ratioP2;P2;SDS_P1;SDS_P2;PMS_P1;PMS_P2;Temp;Humidity;BMP_temperature;BMP_pressure;BME280_temperature;BME280_humidity;BME280_pressure;Samples;Min_cycle;Max_cycle;Signal;HPM_P1;HPM_P2
2021/01/27 00:01:03;;;;;;;33.97;16.90;;;;;;;;;;5072907;28;20025;-47
2021/01/27 00:03:29;;;;;;;31.73;17.35;;;;;;;;;;5087437;28;20055;-47
2021/01/27 00:05:55;;;;;;;38.30;18.00;;;;;;;;;;5078539;28;20029;-48
2021/01/27 00:08:22;;;;;;;32.78;17.73;;;;;;;;;;5075426;28;20472;-47
2021/01/27 00:10:48;;;;;;;32.17;17.02;;;;;;;;;;5079762;28;20024;-47
2021/01/27 00:13:15;;;;;;;33.03;16.00;;;;;;;;;;5080877;28;20046;-48
2021/01/27 00:15:43;;;;;;;33.80;16.90;;;;;;;;;;5082201;28;20371;-47
2021/01/27 00:18:09;;;;;;;32.70;17.00;;;;;;;;;;5077385;28;20539;-48
2021/01/27 00:20:35;;;;;;;30.95;16.35;;;;;;;;;;5083454;28;20032;-48
2021/01/27 00:23:01;;;;;;;34.13;16.85;;;;;;;;;;5084021;28;20036;-49
2021/01/27 00:25:29;;;;;;;35.53;16.73;;;;;;;;;;5071147;28;20055;-48
2021/01/27 00:27:55;;;;;;;31.45;17.17;;;;;;;;;;5076588;28;20107;-48
2021/01/27 00:30:26;;;;;;;32.80;17.10;;;;;;;;;;5087119;28;20065;-49
2021/01/27 00:32:52;;;;;;;30.30;15.43;;;;;;;;;;5087082;28;20039;-47
2021/01/27 00:35:19;;;;;;;34.08;16.25;;;;;;;;;;5086869;28;20033;-46
2021/01/27 00:37:45;;;;;;;27.45;14.85;;;;;;;;;;5088560;28;20035;-49
2021/01/27 00:40:11;;;;;;;29.33;14.70;;;;;;;;;;5086700;28;20028;-50
2021/01/27 00:42:37;;;;;;;30.85;15.35;;;;;;;;;;5091562;28;20491;-52
2021/01/27 00:45:04;;;;;;;24.88;15.00;;;;;;;;;;5089468;28;20058;-50
2021/01/27 00:47:30;;;;;;;28.42;14.52;;;;;;;;;;5086813;28;20017;-47
2021/01/27 00:49:56;;;;;;;28.67;15.27;;;;;;;;;;5083233;28;20727;-47
2021/01/27 00:52:22;;;;;;;30.52;14.75;;;;;;;;;;5077029;28;20381;-50
2021/01/27 00:54:48;;;;;;;30.70;14.85;;;;;;;;;;5084238;28;20085;-48
2021/01/27 00:57:14;;;;;;;31.10;14.40;;;;;;;;;;5087397;28;20624;-48
2021/01/27 00:59:40;;;;;;;28.98;14.52;;;;;;;;;;5090683;28;20043;-48
2021/01/27 01:02:06;;;;;;;25.60;13.43;;;;;;;;;;5081396;28;20455;-50
2021/01/27 01:04:32;;;;;;;28.85;13.80;;;;;;;;;;5083935;28;20059;-48
2021/01/27 01:06:58;;;;;;;25.85;13.75;;;;;;;;;;5090551;28;20020;-48
2021/01/27 01:09:24;;;;;;;24.65;13.57;;;;;;;;;;5078521;28;20047;-49
2021/01/27 01:11:50;;;;;;;25.45;13.57;;;;;;;;;;5090609;28;20028;-47
2021/01/27 01:14:16;;;;;;;27.25;13.55;;;;;;;;;;5090466;28;20124;-47
2021/01/27 01:16:42;;;;;;;32.50;14.43;;;;;;;;;;5087845;28;20024;-48
2021/01/27 01:19:11;;;;;;;24.38;13.20;;;;;;;;;;5089185;28;20103;-47
2021/01/27 01:21:38;;;;;;;24.10;13.40;;;;;;;;;;5090435;28;20024;-50
2021/01/27 01:24:05;;;;;;;27.52;14.38;;;;;;;;;;5084057;28;20024;-47
2021/01/27 01:26:30;;;;;;;30.38;13.63;;;;;;;;;;5081490;28;20055;-48
2021/01/27 01:28:56;;;;;;;26.70;13.15;;;;;;;;;;5090016;28;20482;-47
2021/01/27 01:31:22;;;;;;;28.48;12.93;;;;;;;;;;5088852;28;20448;-47
2021/01/27 01:33:48;;;;;;;29.33;14.60;;;;;;;;;;5073288;28;20024;-48
2021/01/27 01:36:14;;;;;;;26.10;14.13;;;;;;;;;;5076645;28;20044;-48
2021/01/27 01:38:40;;;;;;;30.02;13.73;;;;;;;;;;5088499;28;20035;-48
2021/01/27 01:41:06;;;;;;;31.73;14.27;;;;;;;;;;5089732;28;20485;-48
2021/01/27 01:43:33;;;;;;;27.55;14.27;;;;;;;;;;5095244;28;20030;-48
2021/01/27 01:45:59;;;;;;;29.08;13.30;;;;;;;;;;5084105;28;20105;-47
2021/01/27 01:48:34;;;;;;;24.48;13.80;;;;;;;;;;5072781;28;20418;-49
2021/01/27 01:51:05;;;;;;;26.58;13.70;;;;;;;;;;5083030;28;20097;-49
2021/01/27 01:53:31;;;;;;;27.63;13.60;;;;;;;;;;5076395;28;20032;-49
2021/01/27 01:55:59;;;;;;;26.27;13.82;;;;;;;;;;5076713;28;20086;-48
2021/01/27 01:58:25;;;;;;;27.45;14.10;;;;;;;;;;5082689;28;20024;-49
2021/01/27 02:00:57;;;;;;;25.45;14.07;;;;;;;;;;5083332;28;20472;-51
2021/01/27 02:03:23;;;;;;;26.38;13.30;;;;;;;;;;5082410;28;20056;-49
2021/01/27 02:05:49;;;;;;;28.63;14.63;;;;;;;;;;5077626;28;20468;-48
2021/01/27 02:08:16;;;;;;;27.45;13.98;;;;;;;;;;5084886;28;20047;-49
2021/01/27 02:10:42;;;;;;;29.10;13.63;;;;;;;;;;5088185;28;20028;-48
2021/01/27 02:13:20;;;;;;;33.63;15.13;;;;;;;;;;5089379;28;20098;-49
2021/01/27 02:16:04;;;;;;;28.35;13.40;;;;;;;;;;5089201;28;20287;-49
2021/01/27 02:18:30;;;;;;;27.77;14.55;;;;;;;;;;5082612;28;20058;-53
2021/01/27 02:21:14;;;;;;;29.27;14.15;;;;;;;;;;5089194;28;20030;-48
2021/01/27 02:23:52;;;;;;;26.90;13.95;;;;;;;;;;5089033;28;20069;-49
2021/01/27 02:26:28;;;;;;;29.05;13.77;;;;;;;;;;5075718;28;20037;-52
2021/01/27 02:29:18;;;;;;;28.85;13.88;;;;;;;;;;5087197;28;20111;-48
2021/01/27 02:31:54;;;;;;;26.90;14.77;;;;;;;;;;5088074;28;20137;-53
2021/01/27 02:34:34;;;;;;;26.17;13.82;;;;;;;;;;5078257;28;20016;-50
2021/01/27 02:37:03;;;;;;;32.03;15.38;;;;;;;;;;5081175;28;20031;-48
2021/01/27 02:39:32;;;;;;;31.42;15.52;;;;;;;;;;5088315;28;20460;-49
2021/01/27 02:42:09;;;;;;;31.10;15.93;;;;;;;;;;5082884;28;20028;-47
2021/01/27 02:44:40;;;;;;;31.17;15.18;;;;;;;;;;5082118;28;20066;-53
2021/01/27 02:47:10;;;;;;;28.83;15.10;;;;;;;;;;5075945;28;20434;-47
2021/01/27 02:49:48;;;;;;;35.13;15.05;;;;;;;;;;5071978;28;20500;-50
2021/01/27 02:52:17;;;;;;;32.25;15.82;;;;;;;;;;5078200;28;20024;-50
2021/01/27 02:54:49;;;;;;;30.13;15.93;;;;;;;;;;5088014;28;20165;-50
2021/01/27 02:57:20;;;;;;;33.40;16.45;;;;;;;;;;5088010;28;20050;-48
2021/01/27 03:00:02;;;;;;;33.72;16.02;;;;;;;;;;5086346;28;20036;-49
2021/01/27 03:02:33;;;;;;;31.55;16.55;;;;;;;;;;5081734;28;20034;-50
2021/01/27 03:05:09;;;;;;;36.78;18.27;;;;;;;;;;5081558;28;20051;-52
2021/01/27 03:07:36;;;;;;;35.85;18.10;;;;;;;;;;5083169;28;20032;-52
2021/01/27 03:10:06;;;;;;;29.35;15.52;;;;;;;;;;5087741;28;20027;-51
2021/01/27 03:12:32;;;;;;;37.75;18.35;;;;;;;;;;5087485;28;20024;-49
2021/01/27 03:14:58;;;;;;;38.72;17.88;;;;;;;;;;5077031;28;20046;-49
2021/01/27 03:17:28;;;;;;;39.72;18.88;;;;;;;;;;5084600;28;20398;-48
2021/01/27 03:20:01;;;;;;;40.90;19.42;;;;;;;;;;5070001;28;20032;-48
2021/01/27 03:22:27;;;;;;;;;;;;;;;;;;5077065;28;20414;-47
2021/01/27 03:24:58;;;;;;;32.00;17.38;;;;;;;;;;5087365;28;20003;-48
2021/01/27 03:27:30;;;;;;;39.17;19.15;;;;;;;;;;5087806;28;20024;-48
2021/01/27 03:29:58;;;;;;;46.83;20.95;;;;;;;;;;5079163;28;20028;-49
2021/01/27 03:32:43;;;;;;;47.88;20.05;;;;;;;;;;5080842;28;20020;-49
2021/01/27 03:35:09;;;;;;;43.42;20.75;;;;;;;;;;5083367;28;20539;-48
2021/01/27 03:37:48;;;;;;;40.03;19.48;;;;;;;;;;5086891;28;20034;-49
2021/01/27 03:40:16;;;;;;;43.97;21.55;;;;;;;;;;5084495;28;20032;-49
2021/01/27 03:42:55;;;;;;;42.38;21.60;;;;;;;;;;5087612;28;20643;-48
2021/01/27 03:45:22;;;;;;;44.70;21.67;;;;;;;;;;5067565;28;20790;-52
2021/01/27 03:47:54;;;;;;;50.85;21.83;;;;;;;;;;5080005;28;20020;-48
2021/01/27 03:50:22;;;;;;;48.50;22.85;;;;;;;;;;5087360;28;20016;-47
2021/01/27 03:52:53;;;;;;;41.80;22.05;;;;;;;;;;5087789;28;20024;-47
2021/01/27 03:55:19;;;;;;;52.83;23.52;;;;;;;;;;5074302;28;20101;-49
2021/01/27 03:57:49;;;;;;;46.00;21.25;;;;;;;;;;5072359;28;20460;-47
2021/01/27 04:00:15;;;;;;;46.15;21.85;;;;;;;;;;5082550;28;20040;-48
2021/01/27 04:02:42;;;;;;;49.33;22.23;;;;;;;;;;5081752;28;20024;-48
2021/01/27 04:05:08;;;;;;;46.83;21.40;;;;;;;;;;5076888;28;20119;-48
2021/01/27 04:07:34;;;;;;;47.35;22.85;;;;;;;;;;5087360;28;20024;-49
2021/01/27 04:10:00;;;;;;;44.25;21.85;;;;;;;;;;5083065;28;20034;-49
2021/01/27 04:12:26;;;;;;;44.08;21.20;;;;;;;;;;5087093;28;20175;-48
2021/01/27 04:14:52;;;;;;;48.38;23.63;;;;;;;;;;5087238;28;20475;-48
2021/01/27 04:17:24;;;;;;;46.92;23.27;;;;;;;;;;5084511;28;20360;-48
2021/01/27 04:19:50;;;;;;;42.63;22.00;;;;;;;;;;5078008;28;20046;-48
2021/01/27 04:22:16;;;;;;;45.22;22.27;;;;;;;;;;5083039;28;20119;-49
2021/01/27 04:24:44;;;;;;;46.53;21.35;;;;;;;;;;5078046;28;20117;-49
2021/01/27 04:27:10;;;;;;;47.78;23.42;;;;;;;;;;5086221;28;20024;-47
2021/01/27 04:29:36;;;;;;;41.85;21.70;;;;;;;;;;5079162;28;20032;-47
2021/01/27 04:32:02;;;;;;;43.80;21.58;;;;;;;;;;5079405;28;20020;-48
2021/01/27 04:34:28;;;;;;;45.55;22.33;;;;;;;;;;5087560;28;20506;-47
2021/01/27 04:36:54;;;;;;;47.70;23.08;;;;;;;;;;5087816;28;20024;-49
2021/01/27 04:39:20;;;;;;;45.55;22.65;;;;;;;;;;5090316;28;20024;-47
2021/01/27 04:41:46;;;;;;;45.47;23.50;;;;;;;;;;5084499;28;20036;-50
2021/01/27 04:44:12;;;;;;;47.60;23.08;;;;;;;;;;5081571;28;20550;-48
2021/01/27 04:46:39;;;;;;;43.83;22.23;;;;;;;;;;5085600;28;20035;-50
2021/01/27 04:49:10;;;;;;;42.78;21.63;;;;;;;;;;5079139;28;20027;-47
2021/01/27 04:51:48;;;;;;;47.78;23.67;;;;;;;;;;5088758;28;20039;-50
2021/01/27 04:54:33;;;;;;;44.67;22.30;;;;;;;;;;5091071;28;20614;-52
2021/01/27 04:57:18;;;;;;;41.50;22.05;;;;;;;;;;5079019;28;20035;-48
2021/01/27 04:59:57;;;;;;;46.53;22.85;;;;;;;;;;5086036;28;20605;-48
2021/01/27 05:02:44;;;;;;;43.05;22.30;;;;;;;;;;5083786;28;20035;-47
2021/01/27 05:05:12;;;;;;;45.90;22.48;;;;;;;;;;5079756;28;20074;-47
2021/01/27 05:07:45;;;;;;;41.08;20.92;;;;;;;;;;5090440;28;20034;-47
2021/01/27 05:10:16;;;;;;;42.03;21.75;;;;;;;;;;5090074;28;20077;-48
2021/01/27 05:12:53;;;;;;;46.80;22.90;;;;;;;;;;5079963;28;20028;-49
2021/01/27 05:15:19;;;;;;;42.58;22.08;;;;;;;;;;5082821;28;20030;-47
2021/01/27 05:17:46;;;;;;;42.42;23.00;;;;;;;;;;5084931;28;20085;-48
2021/01/27 05:20:13;;;;;;;44.03;23.05;;;;;;;;;;5083397;28;20118;-49
2021/01/27 05:22:40;;;;;;;42.97;22.33;;;;;;;;;;5090379;28;20024;-48
2021/01/27 05:25:07;;;;;;;50.67;23.65;;;;;;;;;;5077136;28;20108;-48
2021/01/27 05:27:35;;;;;;;42.88;22.77;;;;;;;;;;5073666;28;20035;-46
2021/01/27 05:30:03;;;;;;;42.15;22.70;;;;;;;;;;5081568;28;20028;-50
2021/01/27 05:32:46;;;;;;;43.15;21.63;;;;;;;;;;5089875;28;20507;-50
2021/01/27 05:35:24;;;;;;;41.33;22.05;;;;;;;;;;5090054;28;20499;-47
2021/01/27 05:37:50;;;;;;;46.65;23.55;;;;;;;;;;5086302;28;20036;-50
2021/01/27 05:40:18;;;;;;;50.13;22.92;;;;;;;;;;5089438;28;20028;-49
2021/01/27 05:42:44;;;;;;;44.50;23.10;;;;;;;;;;5090071;28;20032;-47
2021/01/27 05:45:31;;;;;;;43.78;23.17;;;;;;;;;;5087410;28;20024;-49
2021/01/27 05:48:11;;;;;;;44.28;24.08;;;;;;;;;;5077318;28;20222;-48
2021/01/27 05:50:38;;;;;;;45.13;22.80;;;;;;;;;;5089711;28;20024;-48
2021/01/27 05:53:11;;;;;;;44.25;22.60;;;;;;;;;;5089363;28;20543;-50
2021/01/27 05:55:37;;;;;;;;;;;;;;;;;;5081899;28;20028;-50
2021/01/27 05:58:03;;;;;;;43.97;22.90;;;;;;;;;;5079429;28;19981;-49
2021/01/27 06:00:30;;;;;;;47.28;24.45;;;;;;;;;;5100805;28;20028;-49
2021/01/27 06:02:58;;;;;;;45.00;22.90;;;;;;;;;;5090788;28;20040;-49
2021/01/27 06:05:33;;;;;;;41.42;23.75;;;;;;;;;;5089138;28;20032;-48
2021/01/27 06:08:29;;;;;;;42.28;22.25;;;;;;;;;;5085059;28;20039;-50
2021/01/27 06:11:10;;;;;;;43.70;22.95;;;;;;;;;;5067600;28;20040;-48
2021/01/27 06:13:36;;;;;;;38.40;21.17;;;;;;;;;;5089413;28;20512;-48
2021/01/27 06:16:15;;;;;;;43.40;23.25;;;;;;;;;;5077797;28;20036;-50
2021/01/27 06:18:41;;;;;;;40.00;21.38;;;;;;;;;;5076596;28;20408;-47
2021/01/27 06:21:14;;;;;;;39.03;22.05;;;;;;;;;;5087143;28;20024;-48
2021/01/27 06:24:02;;;;;;;43.60;22.65;;;;;;;;;;5089003;28;20406;-48
2021/01/27 06:26:43;;;;;;;43.70;22.05;;;;;;;;;;5085338;28;20126;-51
2021/01/27 06:29:24;;;;;;;39.92;21.17;;;;;;;;;;5074530;28;20033;-48
2021/01/27 06:31:57;;;;;;;41.55;21.80;;;;;;;;;;5070165;28;20085;-47
2021/01/27 06:34:32;;;;;;;39.00;21.85;;;;;;;;;;5077872;28;20026;-50
2021/01/27 06:37:07;;;;;;;39.42;20.40;;;;;;;;;;5081205;28;20032;-48
2021/01/27 06:39:42;;;;;;;40.50;21.85;;;;;;;;;;5083607;28;20357;-48
2021/01/27 06:42:28;;;;;;;42.75;21.88;;;;;;;;;;5084168;28;20085;-51
2021/01/27 06:44:54;;;;;;;43.75;20.92;;;;;;;;;;5085973;28;20035;-48
2021/01/27 06:47:20;;;;;;;39.70;20.75;;;;;;;;;;5076504;28;20024;-48
2021/01/27 06:49:51;;;;;;;40.90;21.58;;;;;;;;;;5071006;28;20037;-49
2021/01/27 06:52:36;;;;;;;42.72;21.45;;;;;;;;;;5086497;28;20050;-48
2021/01/27 06:55:14;;;;;;;41.92;22.08;;;;;;;;;;5080291;28;22218;-48
2021/01/27 06:58:00;;;;;;;39.28;20.75;;;;;;;;;;5073861;28;20039;-48
2021/01/27 07:00:32;;;;;;;40.10;21.13;;;;;;;;;;5069923;28;20029;-48
2021/01/27 07:03:17;;;;;;;43.03;21.58;;;;;;;;;;5075391;28;20052;-48
2021/01/27 07:06:09;;;;;;;42.40;21.33;;;;;;;;;;5074732;28;20128;-53
2021/01/27 07:09:08;;;;;;;39.50;20.35;;;;;;;;;;5071718;28;20029;-48
2021/01/27 07:11:34;;;;;;;37.08;19.08;;;;;;;;;;5073157;28;20035;-47
2021/01/27 07:14:07;;;;;;;39.95;20.90;;;;;;;;;;5081381;28;20402;-49
2021/01/27 07:16:33;;;;;;;;;;;;;;;;;;5076850;28;20032;-49
2021/01/27 07:19:17;;;;;;;42.75;19.85;;;;;;;;;;5070854;28;19962;-50
2021/01/27 07:22:04;;;;;;;32.33;19.58;;;;;;;;;;5070797;28;20031;-49
2021/01/27 07:24:41;;;;;;;38.13;20.20;;;;;;;;;;5075157;28;20031;-48
2021/01/27 07:27:13;;;;;;;37.67;20.65;;;;;;;;;;5079561;28;20024;-47
2021/01/27 07:29:45;;;;;;;37.15;20.08;;;;;;;;;;5080513;28;20028;-52
2021/01/27 07:32:21;;;;;;;29.27;14.45;;;;;;;;;;5070309;28;20528;-51
2021/01/27 07:34:50;;;;;;;36.28;20.38;;;;;;;;;;5081196;28;20499;-48
2021/01/27 07:37:22;;;;;;;39.80;19.38;;;;;;;;;;5076047;28;20071;-48
2021/01/27 07:39:48;;;;;;;39.22;19.02;;;;;;;;;;5080074;28;20415;-49
2021/01/27 07:42:19;;;;;;;34.15;18.00;;;;;;;;;;5082853;28;20044;-48
2021/01/27 07:44:48;;;;;;;38.17;18.23;;;;;;;;;;5077805;28;20030;-54
2021/01/27 07:47:27;;;;;;;32.03;16.98;;;;;;;;;;5070624;28;20082;-49
2021/01/27 07:49:56;;;;;;;31.50;16.60;;;;;;;;;;5073387;28;20057;-51
2021/01/27 07:52:28;;;;;;;32.75;18.00;;;;;;;;;;5071550;28;20040;-47
2021/01/27 07:55:15;;;;;;;33.20;18.23;;;;;;;;;;5081764;28;20036;-50
2021/01/27 07:57:52;;;;;;;34.20;18.35;;;;;;;;;;5079725;28;20032;-48
2021/01/27 08:00:22;;;;;;;36.35;17.67;;;;;;;;;;5072400;28;20388;-49
2021/01/27 08:03:07;;;;;;;37.70;18.83;;;;;;;;;;5075057;28;20049;-48
2021/01/27 08:05:41;;;;;;;34.95;17.83;;;;;;;;;;5087884;28;20050;-48
2021/01/27 08:08:10;;;;;;;32.08;17.23;;;;;;;;;;5075190;28;20485;-49
2021/01/27 08:10:37;;;;;;;34.17;19.15;;;;;;;;;;5084035;28;20040;-48
2021/01/27 08:13:06;;;;;;;31.73;17.75;;;;;;;;;;5083693;28;20092;-49
2021/01/27 08:15:32;;;;;;;29.80;17.58;;;;;;;;;;5084126;28;20032;-48
2021/01/27 08:18:02;;;;;;;33.58;18.42;;;;;;;;;;5075177;28;20038;-48
2021/01/27 08:20:31;;;;;;;29.35;17.38;;;;;;;;;;5079867;28;20031;-47
2021/01/27 08:23:05;;;;;;;33.85;18.42;;;;;;;;;;5078731;28;20134;-50
2021/01/27 08:25:52;;;;;;;34.60;17.98;;;;;;;;;;5074380;28;20028;-48
2021/01/27 08:28:18;;;;;;;33.00;16.30;;;;;;;;;;5074050;28;20044;-47
2021/01/27 08:30:44;;;;;;;33.28;18.85;;;;;;;;;;5073535;28;20387;-49
2021/01/27 08:33:32;;;;;;;40.58;18.77;;;;;;;;;;5068829;28;20040;-51
2021/01/27 08:36:01;;;;;;;37.22;18.35;;;;;;;;;;5080216;28;20034;-48
2021/01/27 08:38:29;;;;;;;33.75;18.63;;;;;;;;;;5082919;28;20032;-47
2021/01/27 08:40:55;;;;;;;35.35;18.50;;;;;;;;;;5081047;28;20020;-47
2021/01/27 08:43:25;;;;;;;36.50;20.08;;;;;;;;;;5072003;28;20063;-48
2021/01/27 08:45:51;;;;;;;37.83;19.83;;;;;;;;;;5079527;28;20032;-49
2021/01/27 08:48:37;;;;;;;36.58;19.23;;;;;;;;;;5087230;28;20043;-48
2021/01/27 08:51:03;;;;;;;31.17;17.38;;;;;;;;;;5086578;28;20024;-48
2021/01/27 08:53:49;;;;;;;33.45;17.90;;;;;;;;;;5081737;28;20729;-48
2021/01/27 08:56:15;;;;;;;34.15;18.60;;;;;;;;;;5068087;28;20480;-49
2021/01/27 08:58:45;;;;;;;37.97;19.10;;;;;;;;;;5073642;28;20028;-49
2021/01/27 09:01:23;;;;;;;30.42;17.45;;;;;;;;;;5076425;28;20024;-47
2021/01/27 09:03:52;;;;;;;32.10;18.80;;;;;;;;;;5079245;28;20063;-47
2021/01/27 09:06:24;;;;;;;30.73;17.50;;;;;;;;;;5081523;28;20024;-47
2021/01/27 09:08:50;;;;;;;33.28;18.77;;;;;;;;;;5075494;28;20031;-50
2021/01/27 09:11:19;;;;;;;34.63;19.58;;;;;;;;;;5077877;28;20024;-48
2021/01/27 09:13:46;;;;;;;32.15;18.02;;;;;;;;;;5064690;28;20024;-47
2021/01/27 09:16:14;;;;;;;31.70;17.77;;;;;;;;;;5072899;28;20043;-49
2021/01/27 09:18:41;;;;;;;29.30;16.98;;;;;;;;;;5075220;28;20025;-48
2021/01/27 09:21:08;;;;;;;31.42;17.55;;;;;;;;;;5082243;28;20039;-50
2021/01/27 09:23:35;;;;;;;33.35;17.27;;;;;;;;;;5079989;28;20056;-49
2021/01/27 09:26:03;;;;;;;29.80;16.73;;;;;;;;;;5077524;28;20082;-52
2021/01/27 09:28:29;;;;;;;29.90;16.27;;;;;;;;;;5082017;28;20036;-47
2021/01/27 09:30:56;;;;;;;31.70;17.80;;;;;;;;;;5077793;28;20036;-50
2021/01/27 09:33:32;;;;;;;34.40;17.40;;;;;;;;;;5080325;28;20114;-50
2021/01/27 09:36:07;;;;;;;33.13;16.50;;;;;;;;;;5082864;28;20035;-48
2021/01/27 09:38:33;;;;;;;29.05;16.17;;;;;;;;;;5072666;28;20044;-51
2021/01/27 09:41:13;;;;;;;31.15;16.33;;;;;;;;;;5078452;28;20054;-50
2021/01/27 09:43:41;;;;;;;25.30;15.32;;;;;;;;;;5069793;28;20027;-51
2021/01/27 09:46:22;;;;;;;25.25;14.52;;;;;;;;;;5070864;28;20040;-49
2021/01/27 09:48:48;;;;;;;25.92;13.15;;;;;;;;;;5072068;28;20077;-48
2021/01/27 09:51:15;;;;;;;20.25;12.30;;;;;;;;;;5074894;28;20123;-52
2021/01/27 09:53:42;;;;;;;20.70;12.07;;;;;;;;;;5075706;28;20073;-50
2021/01/27 09:56:10;;;;;;;20.52;12.38;;;;;;;;;;5075861;28;20040;-53
2021/01/27 09:58:40;;;;;;;21.70;13.40;;;;;;;;;;5073951;28;20036;-48
2021/01/27 10:01:07;;;;;;;24.13;14.20;;;;;;;;;;5081940;28;20032;-50
2021/01/27 10:03:41;;;;;;;22.13;12.73;;;;;;;;;;5080514;28;20136;-47
2021/01/27 10:06:26;;;;;;;26.20;14.40;;;;;;;;;;5071154;28;20388;-47
2021/01/27 10:08:54;;;;;;;22.52;12.50;;;;;;;;;;5074430;28;20038;-49
2021/01/27 10:11:29;;;;;;;25.00;13.60;;;;;;;;;;5078019;28;20031;-48
2021/01/27 10:14:06;;;;;;;24.90;13.63;;;;;;;;;;5076319;28;20020;-48
2021/01/27 10:16:33;;;;;;;25.55;13.75;;;;;;;;;;5080467;28;20066;-52
2021/01/27 10:19:06;;;;;;;32.35;19.60;;;;;;;;;;5077954;28;20016;-51
2021/01/27 10:21:32;;;;;;;;;;;;;;;;;;5075631;28;20439;-48
2021/01/27 10:23:58;;;;;;;21.05;12.18;;;;;;;;;;5085960;28;20027;-51
2021/01/27 10:26:30;;;;;;;17.17;10.18;;;;;;;;;;5080702;28;20114;-48
2021/01/27 10:29:15;;;;;;;19.67;11.43;;;;;;;;;;5083016;28;20028;-51
2021/01/27 10:31:41;;;;;;;17.73;10.00;;;;;;;;;;5074848;28;20028;-51
2021/01/27 10:34:07;;;;;;;16.13;10.23;;;;;;;;;;5080702;28;20387;-52
2021/01/27 10:36:39;;;;;;;15.52;9.48;;;;;;;;;;5079937;28;20088;-51
2021/01/27 10:39:14;;;;;;;14.50;8.88;;;;;;;;;;5087136;28;20074;-52
2021/01/27 10:41:40;;;;;;;18.48;10.05;;;;;;;;;;5077017;28;20024;-51
2021/01/27 10:44:19;;;;;;;17.08;9.30;;;;;;;;;;5073820;28;20484;-48
2021/01/27 10:46:45;;;;;;;16.38;9.63;;;;;;;;;;5069936;28;20024;-49
2021/01/27 10:49:11;;;;;;;14.90;9.52;;;;;;;;;;5080788;28;20043;-47
2021/01/27 10:51:37;;;;;;;16.55;11.15;;;;;;;;;;5087695;28;20019;-47
2021/01/27 10:54:04;;;;;;;16.52;10.50;;;;;;;;;;5078877;28;20028;-48
2021/01/27 10:56:30;;;;;;;15.05;8.68;;;;;;;;;;5073915;28;20043;-48
2021/01/27 10:58:56;;;;;;;18.52;9.50;;;;;;;;;;5072914;28;20047;-48
2021/01/27 11:01:22;;;;;;;14.00;9.02;;;;;;;;;;5078085;28;20028;-47
2021/01/27 11:03:47;;;;;;;14.50;9.60;;;;;;;;;;5078354;28;20387;-51
2021/01/27 11:06:13;;;;;;;13.63;9.02;;;;;;;;;;5069174;28;20028;-47
2021/01/27 11:08:45;;;;;;;16.25;9.23;;;;;;;;;;5071229;28;20368;-50
2021/01/27 11:11:11;;;;;;;17.50;8.88;;;;;;;;;;5067883;28;20514;-48
2021/01/27 11:13:37;;;;;;;14.82;8.88;;;;;;;;;;5071047;28;20029;-48
2021/01/27 11:16:04;;;;;;;21.13;9.35;;;;;;;;;;5069422;28;20027;-48
2021/01/27 11:18:30;;;;;;;12.88;8.02;;;;;;;;;;5074862;28;20040;-50
2021/01/27 11:20:56;;;;;;;13.82;8.35;;;;;;;;;;5069959;28;20050;-51
2021/01/27 11:23:22;;;;;;;14.80;9.20;;;;;;;;;;5078176;28;20043;-48
2021/01/27 11:25:49;;;;;;;19.17;10.43;;;;;;;;;;5079426;28;20153;-49
2021/01/27 11:28:15;;;;;;;15.25;8.70;;;;;;;;;;5078543;28;20105;-47
2021/01/27 11:30:41;;;;;;;14.32;8.25;;;;;;;;;;5072035;28;20635;-48
2021/01/27 11:33:07;;;;;;;15.13;8.68;;;;;;;;;;5077648;28;20550;-52
2021/01/27 11:35:33;;;;;;;15.05;8.35;;;;;;;;;;5080213;28;20039;-49
2021/01/27 11:38:01;;;;;;;16.17;6.97;;;;;;;;;;5075657;28;20051;-51
2021/01/27 11:40:27;;;;;;;13.35;7.78;;;;;;;;;;5075120;28;20386;-50
2021/01/27 11:42:54;;;;;;;10.50;7.18;;;;;;;;;;5078242;28;20036;-52
2021/01/27 11:45:21;;;;;;;10.68;6.60;;;;;;;;;;5074195;28;20021;-49
2021/01/27 11:47:48;;;;;;;12.13;7.22;;;;;;;;;;5078742;28;20471;-48
2021/01/27 11:50:14;;;;;;;13.45;7.93;;;;;;;;;;5069824;28;20123;-52
2021/01/27 11:52:41;;;;;;;14.63;7.47;;;;;;;;;;5071343;28;20074;-48
2021/01/27 11:55:07;;;;;;;10.93;7.25;;;;;;;;;;5067093;28;20047;-48
2021/01/27 11:57:33;;;;;;;12.63;6.93;;;;;;;;;;5076337;28;20143;-50
2021/01/27 11:59:59;;;;;;;13.40;7.63;;;;;;;;;;5073223;28;20032;-48
2021/01/27 12:02:25;;;;;;;12.57;7.70;;;;;;;;;;5067530;28;20589;-47
2021/01/27 12:04:51;;;;;;;13.25;7.15;;;;;;;;;;5072790;28;20045;-51
2021/01/27 12:07:17;;;;;;;12.15;7.20;;;;;;;;;;5075189;28;20032;-48
2021/01/27 12:09:43;;;;;;;13.27;7.30;;;;;;;;;;5073501;28;20028;-48
2021/01/27 12:12:09;;;;;;;13.43;7.28;;;;;;;;;;5080475;28;20039;-49
2021/01/27 12:14:36;;;;;;;11.65;6.40;;;;;;;;;;5081779;28;20016;-48
2021/01/27 12:17:02;;;;;;;11.68;6.75;;;;;;;;;;5079846;28;20032;-50
2021/01/27 12:19:28;;;;;;;10.23;6.38;;;;;;;;;;5079936;28;20037;-48
2021/01/27 12:21:54;;;;;;;14.63;6.47;;;;;;;;;;5085374;28;20061;-49
2021/01/27 12:24:20;;;;;;;10.10;5.88;;;;;;;;;;5082788;28;20032;-51
2021/01/27 12:26:47;;;;;;;9.63;6.55;;;;;;;;;;5078216;28;21761;-47
2021/01/27 12:29:13;;;;;;;13.30;7.18;;;;;;;;;;5083298;28;20040;-49
2021/01/27 12:31:39;;;;;;;9.48;6.35;;;;;;;;;;5076209;28;20517;-54
2021/01/27 12:34:05;;;;;;;9.65;6.32;;;;;;;;;;5066983;28;20028;-50
2021/01/27 12:36:31;;;;;;;12.60;6.78;;;;;;;;;;5067942;28;20037;-51
2021/01/27 12:38:57;;;;;;;8.30;5.93;;;;;;;;;;5082861;28;20060;-46
2021/01/27 12:41:23;;;;;;;9.70;5.82;;;;;;;;;;5074524;28;20038;-49
2021/01/27 12:43:50;;;;;;;8.90;6.20;;;;;;;;;;5075259;28;20122;-51
2021/01/27 12:46:16;;;;;;;8.25;6.10;;;;;;;;;;5081668;28;20080;-49
2021/01/27 12:48:42;;;;;;;10.88;6.60;;;;;;;;;;5080985;28;20056;-50
2021/01/27 12:51:08;;;;;;;12.32;6.20;;;;;;;;;;5071251;28;20038;-51
2021/01/27 12:53:34;;;;;;;8.35;6.07;;;;;;;;;;5071367;28;20061;-51
2021/01/27 12:56:00;;;;;;;8.88;6.13;;;;;;;;;;5090595;28;20031;-45
2021/01/27 12:58:26;;;;;;;8.35;6.07;;;;;;;;;;5080356;28;20032;-47
2021/01/27 13:00:52;;;;;;;11.18;6.40;;;;;;;;;;5080303;28;20495;-48
2021/01/27 13:03:18;;;;;;;8.88;5.88;;;;;;;;;;5080573;28;20040;-46
2021/01/27 13:05:44;;;;;;;9.77;5.93;;;;;;;;;;5072226;28;20056;-45
2021/01/27 13:08:10;;;;;;;10.20;5.60;;;;;;;;;;5080543;28;20017;-45
2021/01/27 13:10:41;;;;;;;14.68;6.93;;;;;;;;;;5082664;28;20032;-47
2021/01/27 13:13:07;;;;;;;11.60;7.57;;;;;;;;;;5070437;28;20430;-45
2021/01/27 13:15:33;;;;;;;11.77;7.40;;;;;;;;;;5079488;28;20036;-48
2021/01/27 13:17:59;;;;;;;13.25;7.93;;;;;;;;;;5083693;28;20039;-47
2021/01/27 13:20:26;;;;;;;14.65;8.52;;;;;;;;;;5086055;28;20039;-46
2021/01/27 13:22:52;;;;;;;10.90;7.57;;;;;;;;;;5082496;28;20035;-48
2021/01/27 13:25:19;;;;;;;13.90;8.52;;;;;;;;;;5086467;28;20039;-47
2021/01/27 13:27:46;;;;;;;12.18;7.78;;;;;;;;;;5084475;28;20395;-48
2021/01/27 13:30:13;;;;;;;12.98;7.68;;;;;;;;;;5079154;28;20471;-48
2021/01/27 13:32:39;;;;;;;13.60;8.45;;;;;;;;;;5089273;28;20031;-50
2021/01/27 13:35:06;;;;;;;13.90;8.23;;;;;;;;;;5085383;28;20425;-50
2021/01/27 13:37:31;;;;;;;13.43;8.57;;;;;;;;;;5082453;28;20046;-51
2021/01/27 13:39:57;;;;;;;16.60;9.30;;;;;;;;;;5082099;28;20026;-51
2021/01/27 13:42:23;;;;;;;12.77;9.25;;;;;;;;;;5083290;28;20036;-48
2021/01/27 13:44:50;;;;;;;11.77;7.80;;;;;;;;;;5083294;28;20020;-51
2021/01/27 13:47:16;;;;;;;15.82;8.93;;;;;;;;;;5086774;28;20025;-51
2021/01/27 13:49:41;;;;;;;15.27;7.93;;;;;;;;;;5085621;28;20525;-50
2021/01/27 13:52:07;;;;;;;13.75;8.18;;;;;;;;;;5074662;28;20750;-51
2021/01/27 13:54:33;;;;;;;13.07;7.75;;;;;;;;;;5076355;28;20471;-50
2021/01/27 13:56:59;;;;;;;12.45;7.32;;;;;;;;;;5085518;28;20471;-49
2021/01/27 13:59:25;;;;;;;12.68;7.70;;;;;;;;;;5069439;28;20045;-48
2021/01/27 14:01:51;;;;;;;12.23;7.20;;;;;;;;;;5068305;28;20032;-47
2021/01/27 14:04:17;;;;;;;12.35;7.22;;;;;;;;;;5073130;28;20056;-47
2021/01/27 14:06:43;;;;;;;11.23;6.75;;;;;;;;;;5074674;28;20039;-49
2021/01/27 14:09:09;;;;;;;14.00;7.75;;;;;;;;;;5075528;28;20028;-47
2021/01/27 14:11:35;;;;;;;12.85;7.88;;;;;;;;;;5081020;28;20146;-48
2021/01/27 14:14:01;;;;;;;12.07;6.93;;;;;;;;;;5088750;28;20024;-48
2021/01/27 14:16:27;;;;;;;14.02;8.43;;;;;;;;;;5075699;28;20016;-48
2021/01/27 14:18:54;;;;;;;12.90;8.52;;;;;;;;;;5086763;28;20036;-48
2021/01/27 14:21:22;;;;;;;12.27;7.90;;;;;;;;;;5071579;28;20043;-49
2021/01/27 14:23:48;;;;;;;16.60;10.48;;;;;;;;;;5087359;28;20059;-49
2021/01/27 14:26:14;;;;;;;16.85;9.63;;;;;;;;;;5072299;28;20369;-48
2021/01/27 14:28:40;;;;;;;16.40;9.63;;;;;;;;;;5071126;28;20489;-50
2021/01/27 14:31:05;;;;;;;15.82;9.50;;;;;;;;;;5078728;28;20028;-49
2021/01/27 14:33:31;;;;;;;13.98;9.02;;;;;;;;;;5090083;28;20020;-50
2021/01/27 14:35:57;;;;;;;15.80;9.90;;;;;;;;;;5071928;28;20369;-49
2021/01/27 14:38:23;;;;;;;17.05;9.93;;;;;;;;;;5078412;28;20042;-49